sensor_id;sensor_type;location;lat;lon;timestamp;pressure;altitude;pressure_sealevel;temperature;humidity
73674;BME280;61975;48.660;10.164;2022-10-16T00:00:36;95598.31;;;14.41;100.00
73674;BME280;61975;48.660;10.164;2022-10-16T00:03:03;95597.91;;;14.43;100.00
73674;BME280;61975;48.660;10.164;2022-10-16T00:05:28;95593.09;;;14.43;100.00
73674;BME280;61975;48.660;10.164;2022-10-16T00:07:54;95588.72;;;14.42;100.00
73674;BME280;61975;48.660;10.164;2022-10-16T00:10:19;95580.34;;;14.42;100.00
73674;BME280;61975;48.660;10.164;2022-10-16T00:12:45;95574.00;;;14.38;100.00
73674;BME280;61975;48.660;10.164;2022-10-16T00:15:11;95580.78;;;14.37;100.00
73674;BME280;61975;48.660;10.164;2022-10-16T00:17:36;95570.47;;;14.27;100.00
73674;BME280;61975;48.660;10.164;2022-10-16T00:20:02;95582.47;;;14.24;100.00
73674;BME280;61975;48.660;10.164;2022-10-16T00:22:27;95583.28;;;14.18;100.00
73674;BME280;61975;48.660;10.164;2022-10-16T00:24:53;95584.09;;;14.11;100.00
73674;BME280;61975;48.660;10.164;2022-10-16T00:27:18;95589.72;;;14.08;100.00
73674;BME280;61975;48.660;10.164;2022-10-16T00:29:44;95584.91;;;14.08;100.00
73674;BME280;61975;48.660;10.164;2022-10-16T00:32:09;95589.31;;;14.09;100.00
73674;BME280;61975;48.660;10.164;2022-10-16T00:34:34;95588.91;;;14.07;100.00
73674;BME280;61975;48.660;10.164;2022-10-16T00:37:00;95590.09;;;14.10;100.00
73674;BME280;61975;48.660;10.164;2022-10-16T00:39:25;95586.50;;;14.09;100.00
73674;BME280;61975;48.660;10.164;2022-10-16T00:41:51;95588.09;;;14.10;100.00
73674;BME280;61975;48.660;10.164;2022-10-16T00:47:36;95594.13;;;14.02;100.00
73674;BME280;61975;48.660;10.164;2022-10-16T00:52:48;95601.75;;;13.91;100.00
73674;BME280;61975;48.660;10.164;2022-10-16T00:55:15;95594.56;;;13.89;100.00
73674;BME280;61975;48.660;10.164;2022-10-16T00:57:42;95604.94;;;13.85;100.00
73674;BME280;61975;48.660;10.164;2022-10-16T01:00:11;95591.41;;;13.84;100.00
73674;BME280;61975;48.660;10.164;2022-10-16T01:02:36;95586.63;;;13.84;100.00
73674;BME280;61975;48.660;10.164;2022-10-16T01:05:02;95587.44;;;13.81;100.00
73674;BME280;61975;48.660;10.164;2022-10-16T01:12:41;95608.16;;;13.77;100.00
73674;BME280;61975;48.660;10.164;2022-10-16T01:18:54;95606.63;;;13.69;100.00
73674;BME280;61975;48.660;10.164;2022-10-16T01:21:27;95607.41;;;13.66;100.00
73674;BME280;61975;48.660;10.164;2022-10-16T01:29:29;95612.22;;;13.58;100.00
73674;BME280;61975;48.660;10.164;2022-10-16T01:32:28;95606.66;;;13.55;100.00
73674;BME280;61975;48.660;10.164;2022-10-16T01:35:22;95601.50;;;13.53;100.00
73674;BME280;61975;48.660;10.164;2022-10-16T01:37:56;95591.13;;;13.50;100.00
73674;BME280;61975;48.660;10.164;2022-10-16T01:40:25;95586.34;;;13.47;100.00
73674;BME280;61975;48.660;10.164;2022-10-16T01:42:56;95595.13;;;13.46;100.00
73674;BME280;61975;48.660;10.164;2022-10-16T01:45:24;95589.16;;;13.44;100.00
73674;BME280;61975;48.660;10.164;2022-10-16T01:47:50;95597.53;;;13.40;100.00
73674;BME280;61975;48.660;10.164;2022-10-16T01:50:18;95593.16;;;13.36;100.00
73674;BME280;61975;48.660;10.164;2022-10-16T01:52:48;95592.78;;;13.34;100.00
73674;BME280;61975;48.660;10.164;2022-10-16T01:55:20;95605.13;;;13.33;100.00
73674;BME280;61975;48.660;10.164;2022-10-16T01:57:49;95611.13;;;13.31;100.00
73674;BME280;61975;48.660;10.164;2022-10-16T02:00:17;95613.91;;;13.31;100.00
73674;BME280;61975;48.660;10.164;2022-10-16T02:02:47;95622.28;;;13.31;100.00
73674;BME280;61975;48.660;10.164;2022-10-16T02:05:20;95623.06;;;13.28;100.00
73674;BME280;61975;48.660;10.164;2022-10-16T02:07:48;95626.25;;;13.27;100.00
73674;BME280;61975;48.660;10.164;2022-10-16T02:10:14;95624.66;;;13.26;100.00
73674;BME280;61975;48.660;10.164;2022-10-16T02:12:42;95627.47;;;13.26;100.00
73674;BME280;61975;48.660;10.164;2022-10-16T02:15:10;95603.94;;;13.23;100.00
73674;BME280;61975;48.660;10.164;2022-10-16T02:17:36;95605.94;;;13.23;100.00
73674;BME280;61975;48.660;10.164;2022-10-16T02:20:02;95617.50;;;13.18;100.00
73674;BME280;61975;48.660;10.164;2022-10-16T02:22:47;95618.69;;;13.17;100.00
73674;BME280;61975;48.660;10.164;2022-10-16T02:25:21;95620.28;;;13.18;100.00
73674;BME280;61975;48.660;10.164;2022-10-16T02:27:50;95611.91;;;13.18;100.00
73674;BME280;61975;48.660;10.164;2022-10-16T02:30:25;95613.53;;;13.19;100.00
73674;BME280;61975;48.660;10.164;2022-10-16T02:32:53;95617.50;;;13.18;100.00
73674;BME280;61975;48.660;10.164;2022-10-16T02:35:21;95613.13;;;13.17;100.00
73674;BME280;61975;48.660;10.164;2022-10-16T02:37:48;95608.34;;;13.17;100.00
73674;BME280;61975;48.660;10.164;2022-10-16T02:40:15;95605.97;;;13.16;100.00
73674;BME280;61975;48.660;10.164;2022-10-16T02:42:40;95609.94;;;13.15;100.00
73674;BME280;61975;48.660;10.164;2022-10-16T02:45:07;95619.91;;;13.16;100.00
73674;BME280;61975;48.660;10.164;2022-10-16T02:47:33;95619.50;;;13.17;100.00
73674;BME280;61975;48.660;10.164;2022-10-16T02:49:59;95626.25;;;13.20;100.00
73674;BME280;61975;48.660;10.164;2022-10-16T02:52:25;95626.63;;;13.22;100.00
73674;BME280;61975;48.660;10.164;2022-10-16T02:54:50;95618.69;;;13.24;100.00
73674;BME280;61975;48.660;10.164;2022-10-16T02:57:16;95622.66;;;13.26;100.00
73674;BME280;61975;48.660;10.164;2022-10-16T02:59:42;95627.06;;;13.24;100.00
73674;BME280;61975;48.660;10.164;2022-10-16T03:02:08;95627.06;;;13.24;100.00
73674;BME280;61975;48.660;10.164;2022-10-16T03:04:33;95621.47;;;13.27;100.00
73674;BME280;61975;48.660;10.164;2022-10-16T03:06:59;95635.00;;;13.29;100.00
73674;BME280;61975;48.660;10.164;2022-10-16T03:09:24;95635.41;;;13.31;100.00
73674;BME280;61975;48.660;10.164;2022-10-16T03:11:49;95625.81;;;13.32;100.00
73674;BME280;61975;48.660;10.164;2022-10-16T03:14:15;95633.41;;;13.35;100.00
73674;BME280;61975;48.660;10.164;2022-10-16T03:16:40;95634.19;;;13.35;100.00
73674;BME280;61975;48.660;10.164;2022-10-16T03:19:06;95628.22;;;13.33;100.00
73674;BME280;61975;48.660;10.164;2022-10-16T03:21:31;95627.44;;;13.33;100.00
73674;BME280;61975;48.660;10.164;2022-10-16T03:23:56;95635.00;;;13.32;100.00
73674;BME280;61975;48.660;10.164;2022-10-16T03:26:22;95644.16;;;13.29;100.00
73674;BME280;61975;48.660;10.164;2022-10-16T03:28:47;95645.75;;;13.27;100.00
73674;BME280;61975;48.660;10.164;2022-10-16T03:31:13;95620.28;;;13.25;100.00
73674;BME280;61975;48.660;10.164;2022-10-16T03:33:38;95597.97;;;13.25;100.00
73674;BME280;61975;48.660;10.164;2022-10-16T03:36:03;95590.81;;;13.24;100.00
73674;BME280;61975;48.660;10.164;2022-10-16T03:38:29;95614.72;;;13.18;100.00
73674;BME280;61975;48.660;10.164;2022-10-16T03:40:54;95619.88;;;13.12;100.00
73674;BME280;61975;48.660;10.164;2022-10-16T03:43:20;95633.84;;;13.09;100.00
73674;BME280;61975;48.660;10.164;2022-10-16T03:45:45;95633.44;;;13.07;100.00
73674;BME280;61975;48.660;10.164;2022-10-16T03:48:11;95635.44;;;13.10;100.00
73674;BME280;61975;48.660;10.164;2022-10-16T03:50:36;95630.25;;;13.12;100.00
73674;BME280;61975;48.660;10.164;2022-10-16T03:53:02;95625.06;;;13.14;100.00
73674;BME280;61975;48.660;10.164;2022-10-16T03:55:28;95618.69;;;13.17;100.00
73674;BME280;61975;48.660;10.164;2022-10-16T03:57:53;95621.47;;;13.17;100.00
73674;BME280;61975;48.660;10.164;2022-10-16T04:00:18;95617.13;;;13.16;100.00
73674;BME280;61975;48.660;10.164;2022-10-16T04:02:44;95618.69;;;13.17;100.00
73674;BME280;61975;48.660;10.164;2022-10-16T04:05:09;95615.91;;;13.17;100.00
73674;BME280;61975;48.660;10.164;2022-10-16T04:07:35;95620.69;;;13.13;100.00
73674;BME280;61975;48.660;10.164;2022-10-16T04:10:00;95613.94;;;13.07;100.00
73674;BME280;61975;48.660;10.164;2022-10-16T04:12:26;95620.72;;;13.06;100.00
73674;BME280;61975;48.660;10.164;2022-10-16T04:14:52;95611.94;;;13.07;100.00
73674;BME280;61975;48.660;10.164;2022-10-16T04:17:17;95610.75;;;13.05;100.00
73674;BME280;61975;48.660;10.164;2022-10-16T04:19:42;95621.91;;;13.05;100.00
73674;BME280;61975;48.660;10.164;2022-10-16T04:22:08;95625.09;;;13.03;100.00
73674;BME280;61975;48.660;10.164;2022-10-16T04:24:33;95632.25;;;13.01;100.00
73674;BME280;61975;48.660;10.164;2022-10-16T04:26:59;95632.63;;;12.99;100.00
73674;BME280;61975;48.660;10.164;2022-10-16T04:29:24;95639.41;;;12.98;100.00
73674;BME280;61975;48.660;10.164;2022-10-16T04:31:49;95652.13;;;12.99;100.00
73674;BME280;61975;48.660;10.164;2022-10-16T04:34:15;95648.19;;;13.00;100.00
73674;BME280;61975;48.660;10.164;2022-10-16T04:36:40;95641.34;;;12.98;100.00
73674;BME280;61975;48.660;10.164;2022-10-16T04:39:06;95644.97;;;12.98;100.00
73674;BME280;61975;48.660;10.164;2022-10-16T04:41:31;95656.94;;;12.99;100.00
73674;BME280;61975;48.660;10.164;2022-10-16T04:43:56;95652.13;;;12.99;100.00
73674;BME280;61975;48.660;10.164;2022-10-16T04:46:22;95650.16;;;13.00;100.00
73674;BME280;61975;48.660;10.164;2022-10-16T04:48:47;95660.91;;;13.01;100.00
73674;BME280;61975;48.660;10.164;2022-10-16T04:51:13;95661.31;;;13.03;100.00
73674;BME280;61975;48.660;10.164;2022-10-16T04:53:38;95661.72;;;13.02;100.00
73674;BME280;61975;48.660;10.164;2022-10-16T04:56:03;95657.31;;;13.01;100.00
73674;BME280;61975;48.660;10.164;2022-10-16T04:58:29;95651.75;;;13.01;100.00
73674;BME280;61975;48.660;10.164;2022-10-16T05:00:54;95651.75;;;13.01;100.00
73674;BME280;61975;48.660;10.164;2022-10-16T05:03:20;95655.34;;;13.01;100.00
73674;BME280;61975;48.660;10.164;2022-10-16T05:05:45;95657.31;;;13.01;100.00
73674;BME280;61975;48.660;10.164;2022-10-16T05:08:13;95652.50;;;12.98;100.00
73674;BME280;61975;48.660;10.164;2022-10-16T05:10:40;95660.88;;;12.91;100.00
73674;BME280;61975;48.660;10.164;2022-10-16T05:13:06;95668.06;;;12.92;100.00
73674;BME280;61975;48.660;10.164;2022-10-16T05:15:31;95660.88;;;12.91;100.00
73674;BME280;61975;48.660;10.164;2022-10-16T05:17:57;95662.47;;;12.92;100.00
73674;BME280;61975;48.660;10.164;2022-10-16T05:20:23;95666.44;;;12.91;100.00
73674;BME280;61975;48.660;10.164;2022-10-16T05:22:48;95662.06;;;12.90;100.00
73674;BME280;61975;48.660;10.164;2022-10-16T05:25:13;95657.69;;;12.89;100.00
73674;BME280;61975;48.660;10.164;2022-10-16T05:27:39;95647.34;;;12.89;100.00
73674;BME280;61975;48.660;10.164;2022-10-16T05:30:05;95661.66;;;12.91;100.00
73674;BME280;61975;48.660;10.164;2022-10-16T05:32:30;95661.66;;;12.91;100.00
73674;BME280;61975;48.660;10.164;2022-10-16T05:34:56;95660.88;;;12.91;100.00
73674;BME280;61975;48.660;10.164;2022-10-16T05:37:21;95663.66;;;12.91;100.00
73674;BME280;61975;48.660;10.164;2022-10-16T05:39:46;95671.22;;;12.90;100.00
73674;BME280;61975;48.660;10.164;2022-10-16T05:42:12;95677.59;;;12.91;100.00
73674;BME280;61975;48.660;10.164;2022-10-16T05:44:37;95671.22;;;12.90;100.00
73674;BME280;61975;48.660;10.164;2022-10-16T05:47:03;95668.06;;;12.92;100.00
73674;BME280;61975;48.660;10.164;2022-10-16T05:49:28;95671.22;;;12.94;100.00
73674;BME280;61975;48.660;10.164;2022-10-16T05:51:54;95681.59;;;12.93;100.00
73674;BME280;61975;48.660;10.164;2022-10-16T05:54:19;95683.97;;;12.95;100.00
73674;BME280;61975;48.660;10.164;2022-10-16T05:56:45;95684.38;;;12.97;100.00
73674;BME280;61975;48.660;10.164;2022-10-16T05:59:10;95690.38;;;12.99;100.00
73674;BME280;61975;48.660;10.164;2022-10-16T06:01:35;95689.59;;;13.02;100.00
73674;BME280;61975;48.660;10.164;2022-10-16T06:04:01;95693.16;;;13.06;100.00
73674;BME280;61975;48.660;10.164;2022-10-16T06:06:28;95689.59;;;13.09;100.00
73674;BME280;61975;48.660;10.164;2022-10-16T06:08:56;95686.38;;;13.14;100.00
73674;BME280;61975;48.660;10.164;2022-10-16T06:11:24;95685.59;;;13.17;100.00
73674;BME280;61975;48.660;10.164;2022-10-16T06:13:54;95701.53;;;13.20;100.00
73674;BME280;61975;48.660;10.164;2022-10-16T06:16:22;95696.75;;;13.24;100.00
73674;BME280;61975;48.660;10.164;2022-10-16T06:18:50;95703.09;;;13.28;100.00
73674;BME280;61975;48.660;10.164;2022-10-16T06:21:18;95710.25;;;13.36;100.00
73674;BME280;61975;48.660;10.164;2022-10-16T06:23:44;95706.28;;;13.40;100.00
73674;BME280;61975;48.660;10.164;2022-10-16T06:26:12;95713.88;;;13.47;100.00
73674;BME280;61975;48.660;10.164;2022-10-16T06:28:39;95705.47;;;13.50;100.00
73674;BME280;61975;48.660;10.164;2022-10-16T06:31:05;95712.25;;;13.56;100.00
73674;BME280;61975;48.660;10.164;2022-10-16T06:33:31;95721.00;;;13.58;100.00
73674;BME280;61975;48.660;10.164;2022-10-16T06:36:07;95724.19;;;13.64;100.00
73674;BME280;61975;48.660;10.164;2022-10-16T06:38:34;95723.78;;;13.69;100.00
73674;BME280;61975;48.660;10.164;2022-10-16T06:41:02;95728.56;;;13.72;100.00
73674;BME280;61975;48.660;10.164;2022-10-16T06:43:31;95723.38;;;13.77;100.00
73674;BME280;61975;48.660;10.164;2022-10-16T06:45:58;95725.75;;;13.79;100.00
73674;BME280;61975;48.660;10.164;2022-10-16T06:48:24;95738.09;;;13.81;100.00
73674;BME280;61975;48.660;10.164;2022-10-16T06:53:28;95743.69;;;13.85;100.00
73674;BME280;61975;48.660;10.164;2022-10-16T06:55:54;95740.91;;;13.85;100.00
73674;BME280;61975;48.660;10.164;2022-10-16T06:58:20;95745.25;;;13.89;100.00
73674;BME280;61975;48.660;10.164;2022-10-16T07:00:46;95749.25;;;13.92;100.00
73674;BME280;61975;48.660;10.164;2022-10-16T07:03:11;95754.81;;;13.96;100.00
73674;BME280;61975;48.660;10.164;2022-10-16T07:05:38;95755.59;;;14.03;100.00
73674;BME280;61975;48.660;10.164;2022-10-16T07:08:04;95757.97;;;14.12;100.00
73674;BME280;61975;48.660;10.164;2022-10-16T07:10:31;95770.72;;;14.20;100.00
73674;BME280;61975;48.660;10.164;2022-10-16T07:12:56;95771.53;;;14.27;100.00
73674;BME280;61975;48.660;10.164;2022-10-16T07:15:22;95757.53;;;14.34;100.00
73674;BME280;61975;48.660;10.164;2022-10-16T07:17:47;95768.28;;;14.39;100.00
73674;BME280;61975;48.660;10.164;2022-10-16T07:20:12;95766.66;;;14.45;100.00
73674;BME280;61975;48.660;10.164;2022-10-16T07:22:38;95773.84;;;14.50;100.00
73674;BME280;61975;48.660;10.164;2022-10-16T07:25:03;95772.59;;;14.61;100.00
73674;BME280;61975;48.660;10.164;2022-10-16T07:27:29;95783.72;;;14.72;100.00
73674;BME280;61975;48.660;10.164;2022-10-16T07:29:54;95783.25;;;14.84;100.00
73674;BME280;61975;48.660;10.164;2022-10-16T07:32:20;95786.44;;;14.89;100.00
73674;BME280;61975;48.660;10.164;2022-10-16T07:34:45;95793.59;;;14.87;100.00
73674;BME280;61975;48.660;10.164;2022-10-16T07:37:11;95790.41;;;14.88;100.00
73674;BME280;61975;48.660;10.164;2022-10-16T07:39:36;95786.41;;;14.93;100.00
73674;BME280;61975;48.660;10.164;2022-10-16T07:42:01;95787.19;;;14.93;100.00
73674;BME280;61975;48.660;10.164;2022-10-16T07:44:27;95789.19;;;14.96;100.00
73674;BME280;61975;48.660;10.164;2022-10-16T07:46:52;95789.19;;;14.96;100.00
73674;BME280;61975;48.660;10.164;2022-10-16T07:49:18;95797.94;;;14.98;100.00
73674;BME280;61975;48.660;10.164;2022-10-16T07:51:43;95795.53;;;15.00;100.00
73674;BME280;61975;48.660;10.164;2022-10-16T07:54:09;95795.91;;;15.02;100.00
73674;BME280;61975;48.660;10.164;2022-10-16T07:56:35;95800.69;;;15.05;100.00
73674;BME280;61975;48.660;10.164;2022-10-16T07:59:00;95799.16;;;15.01;100.00
73674;BME280;61975;48.660;10.164;2022-10-16T08:01:26;95800.38;;;14.96;100.00
73674;BME280;61975;48.660;10.164;2022-10-16T08:03:52;95804.75;;;14.97;100.00
73674;BME280;61975;48.660;10.164;2022-10-16T08:06:20;95803.09;;;15.07;100.00
73674;BME280;61975;48.660;10.164;2022-10-16T08:08:45;95802.72;;;15.05;100.00
73674;BME280;61975;48.660;10.164;2022-10-16T08:11:11;95818.25;;;15.09;100.00
73674;BME280;61975;48.660;10.164;2022-10-16T08:13:36;95817.44;;;15.16;100.00
73674;BME280;61975;48.660;10.164;2022-10-16T08:16:02;95819.78;;;15.21;100.00
73674;BME280;61975;48.660;10.164;2022-10-16T08:18:36;95828.94;;;15.25;100.00
73674;BME280;61975;48.660;10.164;2022-10-16T08:21:03;95834.13;;;15.30;100.00
73674;BME280;61975;48.660;10.164;2022-10-16T08:23:29;95827.69;;;15.36;100.00
73674;BME280;61975;48.660;10.164;2022-10-16T08:25:56;95839.22;;;15.49;100.00
73674;BME280;61975;48.660;10.164;2022-10-16T08:28:26;95835.59;;;15.52;100.00
73674;BME280;61975;48.660;10.164;2022-10-16T08:30:52;95848.38;;;15.56;100.00
73674;BME280;61975;48.660;10.164;2022-10-16T08:33:17;95855.50;;;15.64;100.00
73674;BME280;61975;48.660;10.164;2022-10-16T08:35:42;95849.88;;;15.68;100.00
73674;BME280;61975;48.660;10.164;2022-10-16T08:38:08;95858.59;;;15.77;100.00
73674;BME280;61975;48.660;10.164;2022-10-16T08:40:36;95859.34;;;15.84;100.00
73674;BME280;61975;48.660;10.164;2022-10-16T08:48:32;95857.47;;;16.18;100.00
73674;BME280;61975;48.660;10.164;2022-10-16T08:51:01;95863.38;;;16.27;100.00
73674;BME280;61975;48.660;10.164;2022-10-16T08:53:31;95870.88;;;16.37;100.00
73674;BME280;61975;48.660;10.164;2022-10-16T08:55:59;95863.81;;;16.26;100.00
73674;BME280;61975;48.660;10.164;2022-10-16T08:58:29;95863.28;;;16.38;100.00
73674;BME280;61975;48.660;10.164;2022-10-16T09:00:57;95859.63;;;16.44;100.00
73674;BME280;61975;48.660;10.164;2022-10-16T09:03:53;95857.06;;;16.61;100.00
73674;BME280;61975;48.660;10.164;2022-10-16T09:17:45;95885.50;;;16.96;100.00
73674;BME280;61975;48.660;10.164;2022-10-16T09:20:32;95878.56;;;17.08;100.00
73674;BME280;61975;48.660;10.164;2022-10-16T09:25:46;95877.22;;;17.19;100.00
73674;BME280;61975;48.660;10.164;2022-10-16T09:28:13;95876.75;;;17.21;100.00
73674;BME280;61975;48.660;10.164;2022-10-16T09:30:39;95875.78;;;17.04;100.00
73674;BME280;61975;48.660;10.164;2022-10-16T09:33:05;95875.78;;;17.04;100.00
73674;BME280;61975;48.660;10.164;2022-10-16T09:35:33;95894.16;;;17.09;100.00
73674;BME280;61975;48.660;10.164;2022-10-16T09:38:00;95892.59;;;17.08;100.00
73674;BME280;61975;48.660;10.164;2022-10-16T09:40:30;95898.13;;;17.11;100.00
73674;BME280;61975;48.660;10.164;2022-10-16T09:43:15;95894.72;;;17.27;100.00
73674;BME280;61975;48.660;10.164;2022-10-16T09:48:21;95888.72;;;17.58;100.00
73674;BME280;61975;48.660;10.164;2022-10-16T09:50:58;95892.88;;;17.77;100.00
73674;BME280;61975;48.660;10.164;2022-10-16T09:53:26;95895.50;;;17.87;100.00
73674;BME280;61975;48.660;10.164;2022-10-16T09:56:02;95900.59;;;17.96;97.63
73674;BME280;61975;48.660;10.164;2022-10-16T09:58:30;95900.81;;;18.08;97.90
73674;BME280;61975;48.660;10.164;2022-10-16T10:00:58;95896.13;;;18.25;97.44
73674;BME280;61975;48.660;10.164;2022-10-16T10:03:41;95901.78;;;18.48;94.72
73674;BME280;61975;48.660;10.164;2022-10-16T10:06:25;95900.69;;;18.65;93.65
73674;BME280;61975;48.660;10.164;2022-10-16T10:11:46;95887.97;;;18.99;90.01
73674;BME280;61975;48.660;10.164;2022-10-16T10:14:23;95902.91;;;19.16;90.56
73674;BME280;61975;48.660;10.164;2022-10-16T10:16:49;95900.81;;;19.20;89.45
73674;BME280;61975;48.660;10.164;2022-10-16T10:19:18;95908.34;;;19.27;89.33
73674;BME280;61975;48.660;10.164;2022-10-16T10:21:44;95908.63;;;19.32;88.83
73674;BME280;61975;48.660;10.164;2022-10-16T10:24:15;95901.81;;;19.33;87.28
73674;BME280;61975;48.660;10.164;2022-10-16T10:27:19;95901.38;;;19.35;86.70
73674;BME280;61975;48.660;10.164;2022-10-16T10:35:56;95899.25;;;19.19;87.38
73674;BME280;61975;48.660;10.164;2022-10-16T10:38:27;95900.81;;;19.20;87.61
73674;BME280;61975;48.660;10.164;2022-10-16T10:43:50;95897.03;;;19.30;87.27
73674;BME280;61975;48.660;10.164;2022-10-16T10:46:35;95898.00;;;19.20;86.26
73674;BME280;61975;48.660;10.164;2022-10-16T10:54:55;95894.13;;;19.34;86.72
73674;BME280;61975;48.660;10.164;2022-10-16T11:03:31;95898.88;;;19.56;84.59
73674;BME280;61975;48.660;10.164;2022-10-16T11:06:17;95886.59;;;19.66;83.72
73674;BME280;61975;48.660;10.164;2022-10-16T11:11:56;95880.19;;;19.82;82.88
73674;BME280;61975;48.660;10.164;2022-10-16T11:14:35;95888.41;;;19.92;81.99
73674;BME280;61975;48.660;10.164;2022-10-16T11:17:27;95883.13;;;19.94;81.62
73674;BME280;61975;48.660;10.164;2022-10-16T11:20:14;95885.59;;;19.92;80.46
73674;BME280;61975;48.660;10.164;2022-10-16T11:25:30;95885.75;;;19.85;80.25
73674;BME280;61975;48.660;10.164;2022-10-16T11:30:50;95899.47;;;19.67;80.13
73674;BME280;61975;48.660;10.164;2022-10-16T11:33:28;95904.28;;;19.67;83.31
73674;BME280;61975;48.660;10.164;2022-10-16T11:39:00;95891.91;;;19.80;81.32
73674;BME280;61975;48.660;10.164;2022-10-16T11:46:33;95887.72;;;19.88;79.38
73674;BME280;61975;48.660;10.164;2022-10-16T11:49:08;95881.47;;;19.97;80.25
73674;BME280;61975;48.660;10.164;2022-10-16T11:51:42;95886.03;;;20.07;78.91
73674;BME280;61975;48.660;10.164;2022-10-16T11:54:25;95880.19;;;20.17;77.54
73674;BME280;61975;48.660;10.164;2022-10-16T11:56:57;95884.06;;;20.23;77.64
73674;BME280;61975;48.660;10.164;2022-10-16T11:59:43;95870.94;;;20.33;76.09
73674;BME280;61975;48.660;10.164;2022-10-16T12:02:26;95873.03;;;20.45;76.28
73674;BME280;61975;48.660;10.164;2022-10-16T12:07:36;95877.34;;;20.65;77.16
73674;BME280;61975;48.660;10.164;2022-10-16T12:10:20;95876.63;;;20.77;76.15
73674;BME280;61975;48.660;10.164;2022-10-16T12:12:46;95875.75;;;20.96;75.07
73674;BME280;61975;48.660;10.164;2022-10-16T12:15:29;95866.88;;;21.10;75.22
73674;BME280;61975;48.660;10.164;2022-10-16T12:17:56;95874.94;;;21.24;73.48
73674;BME280;61975;48.660;10.164;2022-10-16T12:20:25;95879.50;;;21.34;72.07
73674;BME280;61975;48.660;10.164;2022-10-16T12:22:58;95874.91;;;21.40;68.06
73674;BME280;61975;48.660;10.164;2022-10-16T12:28:05;95875.25;;;21.55;71.30
73674;BME280;61975;48.660;10.164;2022-10-16T12:30:33;95878.19;;;21.51;71.34
73674;BME280;61975;48.660;10.164;2022-10-16T12:33:02;95877.38;;;21.51;71.13
73674;BME280;61975;48.660;10.164;2022-10-16T12:35:33;95870.13;;;21.37;71.01
73674;BME280;61975;48.660;10.164;2022-10-16T12:40:44;95879.53;;;21.47;71.17
73674;BME280;61975;48.660;10.164;2022-10-16T12:43:37;95879.78;;;21.65;70.58
73674;BME280;61975;48.660;10.164;2022-10-16T12:48:37;95876.47;;;21.83;70.38
73674;BME280;61975;48.660;10.164;2022-10-16T12:51:20;95876.34;;;21.99;69.61
73674;BME280;61975;48.660;10.164;2022-10-16T12:53:58;95883.25;;;22.10;69.44
73674;BME280;61975;48.660;10.164;2022-10-16T12:59:33;95875.09;;;22.62;66.32
73674;BME280;61975;48.660;10.164;2022-10-16T13:04:43;95876.25;;;22.99;64.84
73674;BME280;61975;48.660;10.164;2022-10-16T13:15:33;95884.88;;;23.94;60.50
73674;BME280;61975;48.660;10.164;2022-10-16T13:23:26;95884.75;;;24.37;58.11
73674;BME280;61975;48.660;10.164;2022-10-16T13:26:23;95884.34;;;24.48;56.58
73674;BME280;61975;48.660;10.164;2022-10-16T13:28:46;95880.06;;;24.52;56.13
73674;BME280;61975;48.660;10.164;2022-10-16T13:31:22;95886.50;;;24.74;55.12
73674;BME280;61975;48.660;10.164;2022-10-16T13:33:53;95894.41;;;24.97;54.62
73674;BME280;61975;48.660;10.164;2022-10-16T13:36:30;95891.66;;;25.33;53.85
73674;BME280;61975;48.660;10.164;2022-10-16T13:39:11;95898.72;;;25.74;52.00
73674;BME280;61975;48.660;10.164;2022-10-16T13:41:37;95890.94;;;26.10;51.25
73674;BME280;61975;48.660;10.164;2022-10-16T13:44:03;95897.16;;;26.41;49.71
73674;BME280;61975;48.660;10.164;2022-10-16T13:46:30;95884.91;;;26.92;48.48
73674;BME280;61975;48.660;10.164;2022-10-16T13:49:05;95890.41;;;27.80;46.84
73674;BME280;61975;48.660;10.164;2022-10-16T13:51:31;95892.94;;;29.69;42.69
73674;BME280;61975;48.660;10.164;2022-10-16T13:53:57;95895.56;;;29.73;43.28
73674;BME280;61975;48.660;10.164;2022-10-16T13:56:28;95893.13;;;28.91;44.42
73674;BME280;61975;48.660;10.164;2022-10-16T13:59:06;95883.94;;;28.09;45.01
73674;BME280;61975;48.660;10.164;2022-10-16T14:01:41;95886.78;;;27.42;46.61
73674;BME280;61975;48.660;10.164;2022-10-16T14:04:10;95890.78;;;26.88;47.10
73674;BME280;61975;48.660;10.164;2022-10-16T14:06:41;95894.91;;;26.45;48.54
73674;BME280;61975;48.660;10.164;2022-10-16T14:09:14;95897.28;;;26.05;50.38
73674;BME280;61975;48.660;10.164;2022-10-16T14:11:48;95906.31;;;25.77;51.36
73674;BME280;61975;48.660;10.164;2022-10-16T14:14:17;95904.91;;;25.63;51.98
73674;BME280;61975;48.660;10.164;2022-10-16T14:16:43;95904.41;;;25.47;52.05
73674;BME280;61975;48.660;10.164;2022-10-16T14:19:20;95902.66;;;25.13;52.43
73674;BME280;61975;48.660;10.164;2022-10-16T14:21:48;95907.03;;;24.87;53.35
73674;BME280;61975;48.660;10.164;2022-10-16T14:24:42;95909.84;;;24.78;54.17
73674;BME280;61975;48.660;10.164;2022-10-16T14:30:14;95911.41;;;24.70;54.06
73674;BME280;61975;48.660;10.164;2022-10-16T14:32:41;95906.97;;;24.69;53.85
73674;BME280;61975;48.660;10.164;2022-10-16T14:37:58;95910.13;;;24.71;55.15
73674;BME280;61975;48.660;10.164;2022-10-16T14:40:30;95910.13;;;24.71;55.22
73674;BME280;61975;48.660;10.164;2022-10-16T14:42:56;95907.94;;;24.66;54.81
73674;BME280;61975;48.660;10.164;2022-10-16T14:45:28;95911.06;;;24.68;54.93
73674;BME280;61975;48.660;10.164;2022-10-16T14:47:59;95904.47;;;24.71;55.02
73674;BME280;61975;48.660;10.164;2022-10-16T14:50:25;95908.88;;;24.72;54.84
73674;BME280;61975;48.660;10.164;2022-10-16T14:52:50;95909.50;;;24.67;54.39